createdAt,value
2023-03-13T00:01:29.149Z,89.09
2023-03-13T00:03:22.397Z,89.12
2023-03-13T00:05:15.475Z,89.30
2023-03-13T00:07:08.600Z,89.21
2023-03-13T00:09:03.977Z,89.08
2023-03-13T00:10:57.054Z,89.34
2023-03-13T00:12:50.109Z,89.27
2023-03-13T00:14:43.154Z,89.44
2023-03-13T00:16:37.803Z,89.55
2023-03-13T00:18:31.312Z,89.36
2023-03-13T00:20:24.356Z,89.20
2023-03-13T00:22:17.606Z,89.38
2023-03-13T00:24:12.496Z,89.26
2023-03-13T00:26:08.522Z,89.02
2023-03-13T00:28:01.573Z,88.92
2023-03-13T00:29:54.621Z,89.00
2023-03-13T00:31:47.720Z,89.20
2023-03-13T00:33:45.288Z,89.20
2023-03-13T00:35:38.332Z,89.12
2023-03-13T00:37:32.457Z,89.35
2023-03-13T00:39:25.505Z,89.21
2023-03-13T00:41:25.827Z,89.26
2023-03-13T00:43:19.186Z,89.45
2023-03-13T00:45:12.239Z,89.43
2023-03-13T00:47:07.237Z,89.43
2023-03-13T00:49:00.296Z,89.57
2023-03-13T00:50:53.537Z,89.73
2023-03-13T00:52:46.594Z,89.73
2023-03-13T00:54:39.722Z,89.86
2023-03-13T00:56:32.892Z,89.74
2023-03-13T00:58:28.054Z,89.75
2023-03-13T01:00:21.654Z,89.82
2023-03-13T01:02:14.990Z,89.81
2023-03-13T01:04:11.575Z,89.79
2023-03-13T01:06:06.846Z,89.82
2023-03-13T01:07:59.800Z,89.73
2023-03-13T01:09:52.836Z,89.78
2023-03-13T01:11:46.607Z,89.67
2023-03-13T01:13:40.500Z,89.65
2023-03-13T01:15:36.546Z,89.79
2023-03-13T01:17:30.796Z,89.84
2023-03-13T01:19:23.851Z,89.84
2023-03-13T01:21:19.912Z,89.95
2023-03-13T01:23:13.423Z,90.09
2023-03-13T01:25:07.984Z,90.13
2023-03-13T01:27:00.970Z,90.46
2023-03-13T01:28:55.088Z,90.62
2023-03-13T01:30:48.436Z,90.89
2023-03-13T01:32:41.551Z,90.75
2023-03-13T01:34:35.107Z,90.82
2023-03-13T01:36:29.192Z,91.06
2023-03-13T01:38:22.156Z,91.26
2023-03-13T01:40:16.109Z,91.07
2023-03-13T01:42:09.155Z,90.84
2023-03-13T01:44:02.202Z,91.21
2023-03-13T01:46:16.339Z,91.23
2023-03-13T01:48:37.407Z,91.19
2023-03-13T01:50:30.611Z,91.42
2023-03-13T01:52:39.025Z,91.32
2023-03-13T01:54:47.950Z,91.25
2023-03-13T01:56:48.984Z,91.32
2023-03-13T01:58:42.343Z,91.27
2023-03-13T02:00:37.210Z,91.32
2023-03-13T02:02:36.792Z,91.35
2023-03-13T02:04:35.582Z,91.48
2023-03-13T02:06:31.600Z,91.42
2023-03-13T02:08:32.785Z,91.51
2023-03-13T02:10:27.474Z,91.57
2023-03-13T02:12:31.377Z,91.44
2023-03-13T02:14:28.730Z,91.42
2023-03-13T02:16:22.336Z,91.40
2023-03-13T02:18:16.373Z,91.53
2023-03-13T02:20:12.078Z,91.61
2023-03-13T02:22:15.485Z,91.52
2023-03-13T02:24:19.886Z,91.44
2023-03-13T02:26:13.552Z,91.38
2023-03-13T02:28:11.998Z,91.46
2023-03-13T02:30:06.823Z,91.45
2023-03-13T02:31:59.773Z,91.32
2023-03-13T02:33:54.972Z,91.27
2023-03-13T02:35:49.488Z,91.22
2023-03-13T02:37:47.070Z,91.36
2023-03-13T02:39:46.430Z,91.17
2023-03-13T02:41:42.276Z,91.29
2023-03-13T02:43:37.430Z,91.23
2023-03-13T02:45:30.887Z,91.24
2023-03-13T02:47:25.587Z,91.32
2023-03-13T02:49:24.056Z,91.26
2023-03-13T02:51:23.580Z,91.13
2023-03-13T02:53:16.610Z,91.13
2023-03-13T02:55:17.936Z,91.03
2023-03-13T02:57:11.521Z,91.20
2023-03-13T02:59:07.039Z,91.25
2023-03-13T03:01:07.832Z,91.24
2023-03-13T03:03:02.324Z,91.29
2023-03-13T03:04:55.414Z,91.31
2023-03-13T03:06:49.266Z,91.33
2023-03-13T03:08:43.975Z,91.33
2023-03-13T03:10:38.027Z,91.39
2023-03-13T03:12:31.492Z,91.38
2023-03-13T03:14:24.643Z,91.55
2023-03-13T03:16:21.317Z,91.59
2023-03-13T03:18:14.328Z,91.75
2023-03-13T03:20:12.257Z,91.90
2023-03-13T03:22:08.104Z,91.85
2023-03-13T03:24:01.375Z,91.74
2023-03-13T03:25:54.516Z,91.62
2023-03-13T03:27:47.663Z,91.61
2023-03-13T03:29:41.123Z,91.72
2023-03-13T03:31:35.031Z,91.64
2023-03-13T03:33:28.149Z,91.55
2023-03-13T03:35:21.501Z,91.72
2023-03-13T03:37:14.461Z,91.66
2023-03-13T03:39:07.501Z,91.52
2023-03-13T03:41:01.675Z,91.56
2023-03-13T03:42:55.240Z,91.43
2023-03-13T03:44:48.291Z,91.37
2023-03-13T03:46:41.633Z,91.37
2023-03-13T03:48:34.908Z,91.43
2023-03-13T03:50:28.371Z,91.54
2023-03-13T03:52:24.384Z,91.63
2023-03-13T03:54:17.638Z,91.46
2023-03-13T03:56:10.610Z,91.29
2023-03-13T03:58:07.838Z,91.28
2023-03-13T04:00:22.295Z,91.31
2023-03-13T04:02:17.842Z,91.36
2023-03-13T04:04:11.568Z,91.43
2023-03-13T04:06:07.295Z,91.53
2023-03-13T04:08:00.335Z,91.65
2023-03-13T04:09:53.282Z,91.82
2023-03-13T04:11:52.067Z,91.78
2023-03-13T04:13:45.116Z,91.91
2023-03-13T04:15:39.871Z,91.96
2023-03-13T04:17:35.011Z,91.89
2023-03-13T04:19:28.160Z,91.92
2023-03-13T04:21:21.621Z,91.88
2023-03-13T04:23:18.770Z,92.04
2023-03-13T04:25:12.023Z,91.94
2023-03-13T04:27:07.177Z,92.32
2023-03-13T04:29:00.683Z,92.05
2023-03-13T04:31:20.013Z,92.20
2023-03-13T04:33:44.229Z,92.16
2023-03-13T04:35:55.764Z,92.19
2023-03-13T04:38:07.712Z,92.15
2023-03-13T04:40:24.006Z,92.06
2023-03-13T04:42:37.228Z,92.21
2023-03-13T04:44:56.604Z,92.15
2023-03-13T04:47:13.096Z,91.92
2023-03-13T04:49:26.114Z,92.12
2023-03-13T04:51:38.627Z,92.20
2023-03-13T04:53:50.411Z,92.21
2023-03-13T04:55:53.806Z,92.26
2023-03-13T04:58:07.132Z,92.58
2023-03-13T05:00:08.383Z,92.59
2023-03-13T05:02:14.124Z,93.04
2023-03-13T05:04:27.450Z,93.13
2023-03-13T05:06:41.806Z,93.24
2023-03-13T05:08:53.815Z,93.45
2023-03-13T05:11:01.097Z,93.31
2023-03-13T05:13:15.120Z,93.20
2023-03-13T05:15:23.013Z,92.99
2023-03-13T05:17:28.230Z,93.14
2023-03-13T05:19:39.325Z,93.03
2023-03-13T05:21:54.905Z,93.04
2023-03-13T05:24:06.697Z,93.14
2023-03-13T05:26:00.464Z,93.11
2023-03-13T05:27:59.572Z,92.97
2023-03-13T05:30:12.065Z,93.18
2023-03-13T05:32:31.309Z,93.00
2023-03-13T05:34:32.447Z,93.05
2023-03-13T05:36:38.836Z,92.93
2023-03-13T05:38:43.214Z,93.03
2023-03-13T05:40:43.240Z,93.03
2023-03-13T05:42:59.803Z,92.53
2023-03-13T05:45:12.372Z,92.34
2023-03-13T05:47:18.637Z,92.19
2023-03-13T05:49:25.814Z,92.32
2023-03-13T05:51:31.919Z,92.32
2023-03-13T05:53:41.408Z,92.77
2023-03-13T05:55:52.104Z,92.71
2023-03-13T05:58:11.231Z,92.24
2023-03-13T06:00:19.331Z,92.24
2023-03-13T06:02:24.462Z,92.03
2023-03-13T06:04:17.638Z,92.00
2023-03-13T06:06:11.999Z,92.01
2023-03-13T06:08:10.579Z,91.94
2023-03-13T06:10:05.058Z,91.91
2023-03-13T06:11:58.724Z,91.86
2023-03-13T06:13:53.247Z,91.83
2023-03-13T06:15:54.139Z,91.73
2023-03-13T06:18:06.138Z,91.67
2023-03-13T06:19:59.189Z,91.61
2023-03-13T06:21:52.662Z,91.68
2023-03-13T06:23:45.678Z,91.57
2023-03-13T06:25:39.054Z,91.46
2023-03-13T06:27:31.948Z,91.45
2023-03-13T06:29:24.930Z,91.43
2023-03-13T06:31:17.887Z,91.28
2023-03-13T06:33:11.328Z,91.09
2023-03-13T06:35:05.838Z,91.11
2023-03-13T06:37:00.641Z,90.85
2023-03-13T06:38:53.688Z,90.60
2023-03-13T06:40:47.974Z,90.54
2023-03-13T06:42:41.027Z,90.48
2023-03-13T06:44:34.070Z,90.30
2023-03-13T06:46:27.375Z,90.26
2023-03-13T06:48:23.244Z,90.29
2023-03-13T06:50:17.029Z,90.19
2023-03-13T06:52:10.061Z,90.06
2023-03-13T06:54:03.818Z,90.02
2023-03-13T06:56:01.192Z,89.92
2023-03-13T06:57:54.348Z,89.81
2023-03-13T06:59:47.386Z,89.84
2023-03-13T07:01:40.432Z,89.81
2023-03-13T07:03:34.049Z,89.52
2023-03-13T07:05:27.254Z,89.61
2023-03-13T07:07:31.174Z,89.32
2023-03-13T07:09:24.731Z,89.35
2023-03-13T07:11:17.796Z,89.19
2023-03-13T07:13:12.315Z,89.14
2023-03-13T07:15:07.423Z,89.08
2023-03-13T07:17:00.685Z,88.73
2023-03-13T07:18:53.969Z,88.73
2023-03-13T07:20:54.738Z,88.78
2023-03-13T07:22:53.470Z,88.51
2023-03-13T07:24:46.898Z,88.49
2023-03-13T07:26:42.705Z,88.34
2023-03-13T07:28:43.200Z,88.09
2023-03-13T07:30:36.680Z,87.84
2023-03-13T07:32:33.496Z,87.57
2023-03-13T07:34:26.746Z,87.47
2023-03-13T07:36:19.945Z,87.42
2023-03-13T07:38:12.946Z,87.31
2023-03-13T07:40:06.711Z,87.16
2023-03-13T07:41:59.710Z,86.86
2023-03-13T07:43:53.230Z,86.68
2023-03-13T07:45:54.529Z,86.65
2023-03-13T07:47:47.728Z,86.58
2023-03-13T07:49:44.253Z,86.54
2023-03-13T07:51:43.819Z,86.48
2023-03-13T07:53:37.573Z,86.34
2023-03-13T07:55:30.780Z,85.85
2023-03-13T07:57:23.832Z,85.61
2023-03-13T07:59:16.823Z,85.76
2023-03-13T08:01:12.808Z,85.45
2023-03-13T08:03:07.517Z,85.30
2023-03-13T08:05:00.943Z,85.37
2023-03-13T08:06:54.919Z,84.82
2023-03-13T08:08:48.279Z,84.55
2023-03-13T08:10:41.322Z,84.72
2023-03-13T08:12:34.382Z,84.65
2023-03-13T08:14:27.836Z,84.97
2023-03-13T08:16:34.510Z,84.78
2023-03-13T08:18:35.138Z,83.65
2023-03-13T08:20:28.181Z,83.56
2023-03-13T08:22:21.456Z,83.37
2023-03-13T08:24:14.485Z,83.53
2023-03-13T08:26:16.856Z,83.76
2023-03-13T08:28:11.240Z,83.41
2023-03-13T08:30:05.382Z,83.31
2023-03-13T08:31:58.670Z,83.06
2023-03-13T08:33:52.240Z,83.01
2023-03-13T08:35:45.844Z,83.00
2023-03-13T08:37:38.945Z,82.93
2023-03-13T08:39:31.865Z,82.61
2023-03-13T08:41:27.094Z,82.36
2023-03-13T08:43:20.142Z,82.07
2023-03-13T08:45:13.093Z,81.79
2023-03-13T08:47:06.963Z,81.43
2023-03-13T08:49:00.022Z,81.32
2023-03-13T08:51:08.383Z,81.22
2023-03-13T08:53:02.921Z,80.85
2023-03-13T08:54:55.966Z,80.72
2023-03-13T08:56:49.121Z,80.11
2023-03-13T08:58:42.985Z,80.55
2023-03-13T09:00:36.037Z,80.47
2023-03-13T09:02:28.999Z,79.82
2023-03-13T09:04:22.034Z,79.29
2023-03-13T09:06:15.239Z,80.06
2023-03-13T09:08:08.311Z,80.26
2023-03-13T09:10:01.291Z,80.33
2023-03-13T09:11:54.342Z,79.89
2023-03-13T09:13:49.459Z,80.46
2023-03-13T09:15:42.562Z,80.61
2023-03-13T09:17:35.747Z,80.30
2023-03-13T09:19:28.797Z,80.49
2023-03-13T09:21:24.120Z,80.65
2023-03-13T09:23:17.665Z,80.98
2023-03-13T09:25:11.224Z,80.74
2023-03-13T09:27:04.479Z,80.90
2023-03-13T09:28:57.836Z,80.67
2023-03-13T09:30:51.124Z,80.58
2023-03-13T09:32:44.269Z,80.79
2023-03-13T09:34:37.299Z,80.22
2023-03-13T09:36:30.450Z,80.11
2023-03-13T09:38:23.392Z,79.76
2023-03-13T09:40:21.263Z,79.28
2023-03-13T09:42:21.029Z,79.57
2023-03-13T09:44:27.135Z,79.86
2023-03-13T09:46:35.511Z,79.31
2023-03-13T09:48:37.902Z,79.49
2023-03-13T09:50:36.946Z,79.82
2023-03-13T09:52:44.086Z,79.87
2023-03-13T09:54:47.262Z,80.12
2023-03-13T09:56:55.464Z,80.31
2023-03-13T09:58:54.992Z,80.38
2023-03-13T10:00:54.468Z,80.65
2023-03-13T10:03:00.628Z,80.79
2023-03-13T10:05:05.278Z,81.26
2023-03-13T10:07:00.677Z,81.21
2023-03-13T10:08:54.010Z,81.13
2023-03-13T10:10:57.741Z,81.52
2023-03-13T10:12:56.292Z,81.09
2023-03-13T10:15:00.955Z,80.83
2023-03-13T10:17:05.432Z,81.04
2023-03-13T10:19:02.174Z,80.68
2023-03-13T10:21:03.776Z,80.35
2023-03-13T10:23:21.550Z,80.38
2023-03-13T10:25:35.012Z,80.66
2023-03-13T10:27:28.635Z,80.89
2023-03-13T10:29:24.694Z,80.84
2023-03-13T10:31:32.410Z,81.01
2023-03-13T10:33:28.595Z,81.54
2023-03-13T10:35:25.532Z,81.54
2023-03-13T10:37:27.998Z,81.59
2023-03-13T10:39:26.591Z,81.87
2023-03-13T10:41:29.361Z,82.18
2023-03-13T10:43:22.714Z,82.53
2023-03-13T10:45:19.963Z,82.77
2023-03-13T10:47:14.869Z,83.11
2023-03-13T10:49:16.283Z,83.35
2023-03-13T10:51:21.744Z,83.67
2023-03-13T10:53:29.450Z,83.80
2023-03-13T10:55:24.706Z,83.80
2023-03-13T10:57:31.230Z,84.27
2023-03-13T10:59:26.687Z,84.54
2023-03-13T11:01:33.787Z,84.57
2023-03-13T11:03:35.213Z,84.65
2023-03-13T11:05:44.697Z,84.86
2023-03-13T11:07:38.601Z,84.97
2023-03-13T11:09:33.419Z,85.16
2023-03-13T11:11:31.025Z,85.16
2023-03-13T11:13:42.998Z,85.19
2023-03-13T11:15:46.410Z,85.26
2023-03-13T11:17:41.641Z,85.55
2023-03-13T11:19:48.767Z,85.61
2023-03-13T11:22:09.090Z,85.73
2023-03-13T11:24:10.612Z,85.84
2023-03-13T11:26:12.004Z,86.08
2023-03-13T11:28:19.672Z,86.07
2023-03-13T11:30:24.681Z,86.15
2023-03-13T11:32:24.119Z,85.92
2023-03-13T11:34:26.638Z,86.27
2023-03-13T11:36:27.676Z,86.44
2023-03-13T11:38:42.960Z,86.63
2023-03-13T11:40:53.111Z,87.04
2023-03-13T11:43:24.005Z,87.73
2023-03-13T11:45:39.772Z,88.23
2023-03-13T11:47:38.517Z,88.75
2023-03-13T11:49:31.468Z,89.32
2023-03-13T11:51:33.421Z,89.55
2023-03-13T11:53:35.967Z,89.36
2023-03-13T11:55:54.554Z,90.16
2023-03-13T11:57:56.918Z,90.54
2023-03-13T12:00:19.044Z,90.50
2023-03-13T12:02:23.634Z,91.20
2023-03-13T12:04:26.342Z,91.08
2023-03-13T12:06:32.155Z,91.00
2023-03-13T12:08:41.628Z,91.62
2023-03-13T12:10:44.183Z,92.04
2023-03-13T12:12:55.692Z,92.11
2023-03-13T12:14:58.937Z,92.33
2023-03-13T12:17:03.188Z,92.52
2023-03-13T12:18:57.468Z,92.55
2023-03-13T12:21:27.904Z,92.59
2023-03-13T12:23:28.896Z,92.70
2023-03-13T12:25:25.541Z,92.99
2023-03-13T12:27:26.301Z,92.92
2023-03-13T12:29:24.927Z,92.94
2023-03-13T12:31:27.657Z,92.99
2023-03-13T12:33:31.068Z,92.63
2023-03-13T12:35:30.498Z,93.30
2023-03-13T12:37:34.472Z,93.17
2023-03-13T12:39:37.852Z,93.51
2023-03-13T12:41:43.805Z,93.32
2023-03-13T12:43:40.107Z,93.32
2023-03-13T12:45:36.636Z,93.06
2023-03-13T12:47:37.607Z,93.09
2023-03-13T12:49:52.787Z,93.22
2023-03-13T12:51:55.143Z,93.16
2023-03-13T12:54:14.328Z,93.13
2023-03-13T12:56:16.673Z,93.03
2023-03-13T12:58:26.731Z,93.10
2023-03-13T13:00:28.480Z,93.01
2023-03-13T13:02:27.927Z,93.13
2023-03-13T13:04:24.913Z,92.96
2023-03-13T13:06:19.197Z,93.01
2023-03-13T13:08:25.800Z,92.96
2023-03-13T13:10:23.051Z,93.14
2023-03-13T13:12:16.682Z,92.94
2023-03-13T13:14:19.048Z,92.99
2023-03-13T13:16:23.638Z,92.65
2023-03-13T13:18:27.620Z,92.61
2023-03-13T13:20:30.556Z,92.67
2023-03-13T13:22:38.877Z,92.76
2023-03-13T13:24:49.632Z,92.65
2023-03-13T13:26:48.797Z,92.49
2023-03-13T13:28:44.093Z,92.58
2023-03-13T13:30:40.704Z,92.58
2023-03-13T13:32:43.502Z,92.46
2023-03-13T13:34:38.475Z,92.52
2023-03-13T13:36:42.175Z,92.43
2023-03-13T13:38:38.227Z,92.34
2023-03-13T13:40:32.581Z,92.35
2023-03-13T13:42:33.014Z,92.15
2023-03-13T13:44:30.267Z,92.07
2023-03-13T13:46:30.714Z,92.05
2023-03-13T13:48:32.891Z,91.76
2023-03-13T13:50:32.031Z,91.90
2023-03-13T13:52:39.742Z,91.93
2023-03-13T13:54:45.858Z,91.62
2023-03-13T13:56:49.825Z,92.00
2023-03-13T13:58:46.028Z,91.82
2023-03-13T14:00:53.432Z,91.63
2023-03-13T14:02:56.707Z,91.65
2023-03-13T14:04:57.383Z,91.41
2023-03-13T14:06:53.854Z,91.46
2023-03-13T14:08:53.846Z,91.36
2023-03-13T14:11:22.085Z,91.30
2023-03-13T14:13:22.187Z,91.26
2023-03-13T14:15:22.533Z,91.17
2023-03-13T14:17:29.281Z,91.12
2023-03-13T14:19:30.322Z,90.88
2023-03-13T14:21:26.566Z,90.92
2023-03-13T14:23:32.622Z,90.87
2023-03-13T14:25:28.368Z,90.98
2023-03-13T14:27:22.152Z,90.71
2023-03-13T14:29:26.039Z,90.80
2023-03-13T14:31:31.272Z,90.63
2023-03-13T14:33:28.854Z,90.75
2023-03-13T14:35:24.684Z,90.54
2023-03-13T14:37:45.107Z,91.55
2023-03-13T14:39:49.157Z,90.63
2023-03-13T14:41:47.761Z,89.47
2023-03-13T14:43:48.170Z,88.98
2023-03-13T14:45:41.540Z,88.22
2023-03-13T14:47:34.648Z,87.93
2023-03-13T14:49:30.694Z,86.84
2023-03-13T14:51:26.649Z,86.11
2023-03-13T14:53:22.703Z,85.87
2023-03-13T14:55:21.915Z,85.55
2023-03-13T14:57:21.292Z,85.30
2023-03-13T14:59:32.724Z,85.35
2023-03-13T15:01:32.619Z,86.02
2023-03-13T15:03:31.675Z,85.99
2023-03-13T15:05:33.596Z,86.24
2023-03-13T15:07:40.142Z,86.48
2023-03-13T15:09:45.090Z,86.56
2023-03-13T15:12:02.200Z,86.71
2023-03-13T15:14:02.595Z,87.12
2023-03-13T15:16:02.589Z,87.18
2023-03-13T15:18:01.133Z,87.45
2023-03-13T15:19:59.140Z,87.41
2023-03-13T15:21:56.721Z,87.42
2023-03-13T15:24:04.600Z,87.52
2023-03-13T15:26:00.177Z,87.55
2023-03-13T15:27:55.511Z,87.58
2023-03-13T15:29:54.339Z,87.45
2023-03-13T15:34:29.728Z,87.36
2023-03-13T15:36:26.018Z,87.70
2023-03-13T15:38:25.671Z,87.03
2023-03-13T15:40:25.500Z,86.92
2023-03-13T15:42:25.005Z,87.02
2023-03-13T15:44:26.834Z,86.85
2023-03-13T15:46:25.372Z,86.91
2023-03-13T15:48:31.500Z,87.05
2023-03-13T15:50:32.615Z,86.88
2023-03-13T15:52:26.603Z,86.67
2023-03-13T15:54:23.506Z,86.55
2023-03-13T15:56:26.040Z,86.80
2023-03-13T15:58:25.471Z,86.75
2023-03-13T16:00:27.161Z,86.67
2023-03-13T16:02:24.582Z,86.46
2023-03-13T16:04:19.235Z,86.41
2023-03-13T16:06:21.442Z,86.45
2023-03-13T16:08:34.743Z,86.47
2023-03-13T16:10:33.849Z,86.18
2023-03-13T16:12:30.394Z,86.22
2023-03-13T16:14:27.220Z,86.11
2023-03-13T16:16:26.006Z,85.90
2023-03-13T16:18:22.117Z,85.92
2023-03-13T16:20:18.848Z,85.85
2023-03-13T16:22:12.942Z,85.80
2023-03-13T16:24:06.643Z,85.77
2023-03-13T16:26:03.635Z,85.63
2023-03-13T16:28:00.788Z,85.48
2023-03-13T16:29:56.193Z,85.20
2023-03-13T16:31:54.214Z,85.11
2023-03-13T16:33:53.877Z,85.02
2023-03-13T16:36:01.935Z,84.80
2023-03-13T16:38:24.207Z,84.51
2023-03-13T16:40:25.738Z,84.25
2023-03-13T16:42:22.353Z,84.29
2023-03-13T16:44:21.468Z,84.02
2023-03-13T16:46:23.696Z,83.83
2023-03-13T16:48:21.678Z,83.76
2023-03-13T16:50:21.027Z,83.68
2023-03-13T16:52:19.505Z,83.45
2023-03-13T16:54:20.435Z,83.32
2023-03-13T16:56:57.268Z,83.21
2023-03-13T16:58:57.682Z,82.89
2023-03-13T17:01:05.304Z,82.95
2023-03-13T17:03:02.730Z,82.82
2023-03-13T17:04:57.715Z,82.94
2023-03-13T17:06:53.778Z,82.97
2023-03-13T17:08:48.468Z,82.82
2023-03-13T17:10:42.139Z,82.78
2023-03-13T17:12:36.922Z,82.63
2023-03-13T17:14:33.085Z,82.58
2023-03-13T17:16:41.476Z,82.40
2023-03-13T17:18:38.756Z,82.29
2023-03-13T17:20:31.907Z,82.32
2023-03-13T17:22:26.652Z,82.29
2023-03-13T17:24:21.113Z,82.23
2023-03-13T17:26:44.772Z,82.32
2023-03-13T17:28:41.630Z,82.14
2023-03-13T17:30:39.101Z,82.27
2023-03-13T17:32:33.654Z,82.37
2023-03-13T17:34:34.329Z,82.33
2023-03-13T17:36:35.494Z,82.36
2023-03-13T17:38:34.596Z,82.28
2023-03-13T17:40:30.094Z,82.27
2023-03-13T17:42:23.042Z,82.33
2023-03-13T17:44:16.396Z,82.40
2023-03-13T17:46:18.143Z,82.25
2023-03-13T17:48:13.563Z,82.23
2023-03-13T17:50:20.337Z,82.33
2023-03-13T17:52:16.046Z,82.29
2023-03-13T17:54:09.713Z,82.19
2023-03-13T17:56:02.865Z,82.02
2023-03-13T17:57:56.015Z,82.28
2023-03-13T17:59:50.335Z,82.26
2023-03-13T18:01:45.303Z,82.11
2023-03-13T18:03:38.545Z,82.04
2023-03-13T18:05:38.090Z,82.10
2023-03-13T18:07:50.153Z,82.19
2023-03-13T18:09:48.625Z,82.25
2023-03-13T18:11:47.753Z,82.25
2023-03-13T18:13:41.485Z,82.21
2023-03-13T18:15:35.292Z,82.31
2023-03-13T18:17:29.841Z,82.26
2023-03-13T18:19:46.265Z,82.17
2023-03-13T18:21:40.358Z,82.17
2023-03-13T18:23:40.802Z,82.14
2023-03-13T18:25:36.212Z,82.37
2023-03-13T18:27:30.172Z,82.12
2023-03-13T18:29:29.775Z,82.09
2023-03-13T18:31:24.068Z,82.08
2023-03-13T18:33:18.981Z,82.03
2023-03-13T18:35:16.514Z,82.00
2023-03-13T18:37:23.323Z,82.12
2023-03-13T18:39:18.931Z,81.87
2023-03-13T18:41:12.289Z,81.78
2023-03-13T18:43:05.337Z,81.83
2023-03-13T18:44:58.907Z,81.74
2023-03-13T18:46:53.281Z,81.66
2023-03-13T18:48:46.947Z,81.81
2023-03-13T18:50:40.762Z,81.58
2023-03-13T18:52:34.586Z,81.44
2023-03-13T18:54:27.543Z,81.64
2023-03-13T18:56:21.914Z,81.51
2023-03-13T18:58:16.624Z,81.66
2023-03-13T19:00:23.565Z,81.64
2023-03-13T19:02:18.516Z,81.69
2023-03-13T19:04:11.626Z,81.41
2023-03-13T19:06:33.465Z,81.33
2023-03-13T19:08:28.064Z,81.00
2023-03-13T19:10:25.128Z,81.24
2023-03-13T19:12:18.552Z,81.15
2023-03-13T19:14:12.712Z,81.24
2023-03-13T19:16:19.322Z,81.34
2023-03-13T19:18:12.661Z,81.18
2023-03-13T19:20:06.590Z,81.17
2023-03-13T19:22:02.014Z,81.32
2023-03-13T19:23:56.709Z,81.11
2023-03-13T19:25:50.077Z,81.14
2023-03-13T19:27:45.377Z,81.21
2023-03-13T19:29:41.414Z,81.01
2023-03-13T19:31:34.844Z,81.01
2023-03-13T19:33:38.438Z,80.97
2023-03-13T19:35:34.253Z,80.78
2023-03-13T19:37:28.847Z,80.72
2023-03-13T19:39:25.983Z,80.69
2023-03-13T19:41:20.962Z,80.82
2023-03-13T19:43:16.874Z,80.83
2023-03-13T19:45:12.735Z,80.72
2023-03-13T19:47:06.608Z,80.53
2023-03-13T19:49:02.421Z,80.73
2023-03-13T19:50:55.431Z,80.73
2023-03-13T19:52:49.081Z,80.59
2023-03-13T19:54:42.794Z,80.49
2023-03-13T19:56:36.797Z,80.46
2023-03-13T19:58:30.186Z,80.39
2023-03-13T20:00:28.029Z,80.38
2023-03-13T20:02:21.972Z,80.12
2023-03-13T20:04:15.624Z,80.16
2023-03-13T20:06:21.681Z,79.98
2023-03-13T20:08:14.634Z,80.09
2023-03-13T20:10:10.241Z,80.11
2023-03-13T20:12:03.602Z,79.89
2023-03-13T20:13:57.161Z,80.04
2023-03-13T20:15:50.246Z,80.01
2023-03-13T20:17:43.261Z,79.93
2023-03-13T20:19:36.321Z,80.22
2023-03-13T20:21:36.257Z,80.00
2023-03-13T20:23:31.738Z,79.96
2023-03-13T20:25:25.318Z,79.92
2023-03-13T20:27:21.135Z,79.98
2023-03-13T20:29:16.681Z,80.07
2023-03-13T20:31:11.142Z,79.95
2023-03-13T20:33:04.504Z,79.77
2023-03-13T20:34:57.719Z,79.98
2023-03-13T20:36:56.459Z,79.97
2023-03-13T20:38:52.700Z,79.65
2023-03-13T20:40:53.171Z,79.77
2023-03-13T20:42:46.309Z,79.64
2023-03-13T20:44:40.025Z,79.53
2023-03-13T20:46:33.644Z,79.59
2023-03-13T20:48:29.973Z,79.58
2023-03-13T20:50:24.260Z,79.29
2023-03-13T20:52:20.258Z,79.25
2023-03-13T20:54:13.413Z,79.36
2023-03-13T20:56:08.055Z,79.18
2023-03-13T20:58:03.523Z,79.13
2023-03-13T20:59:58.051Z,78.91
2023-03-13T21:01:52.099Z,78.98
2023-03-13T21:03:47.785Z,78.77
2023-03-13T21:05:44.639Z,78.71
2023-03-13T21:07:37.775Z,78.77
2023-03-13T21:09:32.559Z,78.39
2023-03-13T21:11:25.616Z,78.49
2023-03-13T21:13:18.678Z,78.52
2023-03-13T21:15:12.631Z,78.58
2023-03-13T21:17:06.129Z,78.32
2023-03-13T21:19:09.893Z,78.35
2023-03-13T21:21:09.503Z,78.35
2023-03-13T21:23:02.959Z,78.27
2023-03-13T21:25:00.825Z,78.18
2023-03-13T21:26:55.196Z,78.25
2023-03-13T21:28:49.076Z,78.07
2023-03-13T21:30:42.127Z,77.98
2023-03-13T21:32:39.525Z,78.00
2023-03-13T21:34:32.524Z,78.03
2023-03-13T21:36:25.787Z,77.75
2023-03-13T21:38:19.079Z,77.76
2023-03-13T21:40:13.487Z,77.69
2023-03-13T21:44:32.540Z,77.71
2023-03-13T21:46:39.332Z,77.40
2023-03-13T21:48:43.447Z,77.51
2023-03-13T21:50:36.439Z,77.39
2023-03-13T21:52:34.358Z,77.50
2023-03-13T21:54:29.878Z,77.36
2023-03-13T21:56:22.965Z,77.17
2023-03-13T22:01:12.453Z,76.87
2023-03-13T22:03:05.605Z,76.77
2023-03-13T22:04:58.640Z,76.70
2023-03-13T22:06:51.692Z,76.80
2023-03-13T22:08:45.271Z,76.70
2023-03-13T22:10:38.823Z,76.46
2023-03-13T22:12:31.750Z,76.56
2023-03-13T22:14:25.851Z,76.32
2023-03-13T22:16:21.013Z,76.09
2023-03-13T22:18:14.959Z,76.29
2023-03-13T22:20:09.226Z,76.16
2023-03-13T22:22:02.173Z,76.03
2023-03-13T22:23:55.112Z,75.74
2023-03-13T22:25:48.304Z,75.57
2023-03-13T22:27:41.322Z,75.66
2023-03-13T22:29:34.374Z,75.42
2023-03-13T22:31:27.434Z,75.17
2023-03-13T22:33:20.411Z,75.09
2023-03-13T22:35:13.604Z,74.49
2023-03-13T22:37:06.642Z,74.96
2023-03-13T22:38:59.694Z,74.93
2023-03-13T22:41:01.447Z,74.92
2023-03-13T22:42:54.508Z,74.83
2023-03-13T22:44:47.430Z,74.73
2023-03-13T22:46:40.495Z,74.87
2023-03-13T22:48:33.979Z,74.83
2023-03-13T22:50:28.137Z,74.73
2023-03-13T22:52:22.719Z,74.97
2023-03-13T22:54:15.771Z,74.82
2023-03-13T22:56:10.373Z,74.86
2023-03-13T22:58:05.509Z,74.98
2023-03-13T23:00:05.361Z,75.19
2023-03-13T23:02:00.660Z,75.19
2023-03-13T23:03:54.424Z,75.11
2023-03-13T23:05:49.116Z,74.94
2023-03-13T23:07:43.232Z,74.95
2023-03-13T23:09:40.112Z,74.80
2023-03-13T23:11:35.121Z,74.65
2023-03-13T23:13:31.305Z,74.70
2023-03-13T23:15:26.536Z,74.64
2023-03-13T23:17:23.476Z,74.72
2023-03-13T23:19:17.306Z,74.64
2023-03-13T23:21:15.803Z,74.68
2023-03-13T23:23:09.870Z,74.87
2023-03-13T23:25:03.907Z,74.84
2023-03-13T23:27:00.504Z,74.75
2023-03-13T23:28:54.667Z,74.81
2023-03-13T23:30:48.733Z,74.74
2023-03-13T23:32:44.741Z,74.66
2023-03-13T23:34:38.784Z,74.62
2023-03-13T23:36:33.460Z,74.66
2023-03-13T23:38:27.465Z,74.69
2023-03-13T23:40:22.607Z,74.86
2023-03-13T23:42:15.696Z,75.01
2023-03-13T23:44:11.766Z,75.12
2023-03-13T23:46:06.710Z,75.15
2023-03-13T23:47:59.759Z,75.32
2023-03-13T23:49:52.811Z,75.26
2023-03-13T23:51:45.761Z,75.41
2023-03-13T23:53:40.958Z,75.53
2023-03-13T23:55:34.021Z,75.56
2023-03-13T23:57:26.959Z,75.64
2023-03-13T23:59:19.868Z,75.63
